Time;durP1;ratioP1;P1;durP2;ratioP2;P2;SDS_P1;SDS_P2;PMS_P1;PMS_P2;Temp;Humidity;BMP_temperature;BMP_pressure;BME280_temperature;BME280_humidity;BME280_pressure;Samples;Min_cycle;Max_cycle;Signal;HPM_P1;HPM_P2
2021/05/02 00:00:17;;;;;;;8.38;4.68;;;10.20;63.80;;;;;;5029059;28;20075;-84
2021/05/02 00:02:43;;;;;;;5.53;4.40;;;10.20;63.90;;;;;;5027666;28;20112;-83
2021/05/02 00:05:10;;;;;;;8.27;5.00;;;10.20;64.00;;;;;;5011235;28;20450;-83
2021/05/02 00:07:36;;;;;;;7.80;5.15;;;10.20;64.20;;;;;;5027546;28;20116;-83
2021/05/02 00:10:03;;;;;;;8.68;4.88;;;10.30;64.40;;;;;;5028737;28;20029;-83
2021/05/02 00:12:28;;;;;;;7.25;4.40;;;10.30;64.50;;;;;;5028674;28;20435;-83
2021/05/02 00:14:55;;;;;;;6.25;4.57;;;10.30;64.70;;;;;;5010901;28;20025;-83
2021/05/02 00:17:21;;;;;;;6.15;4.85;;;10.30;64.80;;;;;;5027299;28;20088;-83
2021/05/02 00:19:49;;;;;;;6.18;4.70;;;10.30;64.90;;;;;;5010991;28;20037;-83
2021/05/02 00:22:17;;;;;;;6.15;4.63;;;10.30;65.10;;;;;;5028904;28;20478;-83
2021/05/02 00:24:44;;;;;;;10.07;5.00;;;10.30;65.30;;;;;;5027164;28;20404;-83
2021/05/02 00:27:10;;;;;;;8.65;4.68;;;10.30;65.40;;;;;;5028528;28;20033;-83
2021/05/02 00:29:38;;;;;;;7.35;4.47;;;10.30;65.50;;;;;;5027021;28;20033;-83
2021/05/02 00:32:05;;;;;;;9.77;5.70;;;10.30;65.70;;;;;;5010790;28;20064;-83
2021/05/02 00:34:31;;;;;;;7.30;4.75;;;10.30;65.80;;;;;;5010820;28;20026;-83
2021/05/02 00:36:57;;;;;;;8.30;5.10;;;10.20;65.90;;;;;;5027039;28;20059;-83
2021/05/02 00:39:23;;;;;;;6.47;4.32;;;10.20;66.10;;;;;;5010928;28;20248;-83
2021/05/02 00:41:57;;;;;;;6.68;4.80;;;10.20;66.20;;;;;;5010824;28;20403;-84
2021/05/02 00:44:24;;;;;;;8.80;4.97;;;10.10;66.40;;;;;;5027075;28;20030;-83
2021/05/02 00:46:57;;;;;;;8.30;5.00;;;10.10;66.40;;;;;;5027003;28;20132;-83
2021/05/02 00:49:29;;;;;;;8.27;4.90;;;10.00;66.70;;;;;;5010418;28;20401;-84
2021/05/02 00:52:00;;;;;;;7.05;4.82;;;10.00;66.70;;;;;;5027248;28;20127;-83
2021/05/02 00:54:36;;;;;;;6.70;4.72;;;9.90;67.00;;;;;;5026872;28;20025;-83
2021/05/02 00:57:14;;;;;;;6.10;4.72;;;9.80;67.10;;;;;;5026799;28;20571;-83
2021/05/02 01:00:00;;;;;;;8.65;5.53;;;9.80;67.30;;;;;;5027061;28;20033;-83
2021/05/02 01:02:28;;;;;;;6.43;4.80;;;9.70;67.70;;;;;;5027151;28;20026;-83
2021/05/02 01:04:58;;;;;;;9.02;5.57;;;9.60;67.70;;;;;;5026752;28;20128;-81
2021/05/02 01:07:29;;;;;;;6.65;4.85;;;9.60;67.90;;;;;;5026657;28;20445;-84
2021/05/02 01:10:01;;;;;;;5.80;4.18;;;9.50;68.20;;;;;;5027984;28;20376;-83
2021/05/02 01:12:27;;;;;;;7.43;5.00;;;9.50;68.40;;;;;;5026850;28;20053;-83
2021/05/02 01:14:54;;;;;;;8.05;4.90;;;9.40;68.50;;;;;;5010117;28;20432;-83
2021/05/02 01:17:20;;;;;;;7.75;4.80;;;9.50;68.80;;;;;;5026709;28;20021;-84
2021/05/02 01:19:49;;;;;;;7.25;4.90;;;9.50;69.00;;;;;;5010233;28;20125;-83
2021/05/02 01:22:17;;;;;;;7.65;5.13;;;9.40;69.10;;;;;;5010077;28;20061;-83
2021/05/02 01:24:49;;;;;;;7.88;5.15;;;9.50;69.40;;;;;;5009965;28;20457;-83
2021/05/02 01:27:29;;;;;;;6.43;4.40;;;9.50;69.60;;;;;;5026644;28;20061;-83
2021/05/02 01:29:56;;;;;;;7.47;4.82;;;9.40;69.80;;;;;;5026312;28;20026;-83
2021/05/02 01:32:24;;;;;;;9.43;5.20;;;9.40;69.70;;;;;;5026493;28;20030;-83
2021/05/02 01:34:50;;;;;;;8.30;5.88;;;9.40;69.90;;;;;;5026270;28;20021;-83
2021/05/02 01:37:15;;;;;;;7.50;4.97;;;9.40;70.00;;;;;;5027796;28;20362;-83
2021/05/02 01:39:42;;;;;;;9.52;5.57;;;9.30;70.20;;;;;;5026527;28;20034;-83
2021/05/02 01:42:08;;;;;;;8.90;5.22;;;9.30;70.40;;;;;;5026330;28;20034;-83
2021/05/02 01:44:34;;;;;;;6.18;4.97;;;9.30;70.60;;;;;;5009984;28;20075;-83
2021/05/02 01:47:16;;;;;;;7.15;4.97;;;9.20;71.20;;;;;;5026101;28;20095;-83
2021/05/02 01:49:53;;;;;;;8.70;5.63;;;9.20;71.00;;;;;;5026216;28;20036;-83
2021/05/02 01:52:20;;;;;;;6.63;4.90;;;9.20;71.20;;;;;;5027572;28;20529;-83
2021/05/02 01:54:47;;;;;;;12.13;5.32;;;9.20;71.10;;;;;;5026115;28;20124;-84
2021/05/02 01:57:18;;;;;;;10.27;5.53;;;9.20;71.20;;;;;;5028612;28;20028;-83
2021/05/02 01:59:46;;;;;;;5.53;4.55;;;9.10;71.50;;;;;;5030011;28;20384;-83
2021/05/02 02:02:14;;;;;;;7.43;5.18;;;9.10;71.50;;;;;;5031071;28;20060;-83
2021/05/02 02:04:43;;;;;;;7.35;4.57;;;9.00;71.60;;;;;;5029959;28;20091;-83
2021/05/02 02:07:13;;;;;;;6.67;5.40;;;8.90;71.80;;;;;;5029717;28;20443;-83
2021/05/02 02:09:39;;;;;;;6.20;4.70;;;8.90;71.90;;;;;;5029759;28;20289;-83
2021/05/02 02:12:08;;;;;;;8.05;5.38;;;8.80;72.00;;;;;;5029741;28;20060;-84
2021/05/02 02:14:38;;;;;;;6.90;5.30;;;8.70;72.30;;;;;;5030030;28;20026;-83
2021/05/02 02:17:06;;;;;;;6.25;4.80;;;8.60;72.60;;;;;;5031085;28;20024;-83
2021/05/02 02:19:32;;;;;;;7.10;5.80;;;8.50;72.70;;;;;;5029452;28;20412;-83
2021/05/02 02:21:58;;;;;;;7.93;5.15;;;8.50;73.00;;;;;;5030776;28;20034;-83
2021/05/02 02:24:45;;;;;;;8.88;5.05;;;8.40;73.20;;;;;;5029374;28;20044;-84
2021/05/02 02:27:12;;;;;;;7.13;5.40;;;8.40;73.70;;;;;;5029467;28;20033;-83
2021/05/02 02:29:48;;;;;;;6.40;4.85;;;8.30;73.60;;;;;;5013461;28;20030;-83
2021/05/02 02:32:16;;;;;;;9.35;5.35;;;8.20;74.00;;;;;;5029564;28;20445;-83
2021/05/02 02:34:44;;;;;;;9.88;5.22;;;8.20;74.20;;;;;;5012951;28;20021;-83
2021/05/02 02:37:15;;;;;;;6.95;4.75;;;8.20;74.50;;;;;;5030681;28;20103;-83
2021/05/02 02:39:47;;;;;;;5.88;4.80;;;8.10;74.60;;;;;;5029513;28;20032;-84
2021/05/02 02:42:14;;;;;;;8.20;4.95;;;8.10;74.90;;;;;;5029495;28;20026;-83
2021/05/02 02:44:46;;;;;;;7.78;5.65;;;8.10;74.90;;;;;;5028970;28;20033;-84
2021/05/02 02:47:17;;;;;;;5.65;4.72;;;8.10;75.20;;;;;;5028967;28;20583;-83
2021/05/02 02:49:46;;;;;;;7.55;5.65;;;8.00;75.30;;;;;;5029194;28;20400;-83
2021/05/02 02:52:19;;;;;;;8.20;5.03;;;8.00;75.40;;;;;;5029095;28;20029;-83
2021/05/02 02:55:06;;;;;;;5.80;4.82;;;8.00;75.60;;;;;;5029351;28;20471;-82
2021/05/02 02:57:45;;;;;;;6.50;4.93;;;7.90;75.70;;;;;;5030210;28;20083;-84
2021/05/02 03:00:12;;;;;;;8.07;5.60;;;7.90;75.90;;;;;;5028951;28;20033;-82
2021/05/02 03:02:41;;;;;;;8.23;6.15;;;7.90;75.80;;;;;;5029033;28;20060;-83
2021/05/02 03:05:09;;;;;;;8.23;5.95;;;7.90;76.00;;;;;;5029111;28;20035;-83
2021/05/02 03:07:39;;;;;;;10.45;6.15;;;7.80;76.10;;;;;;5027956;28;20034;-83
2021/05/02 03:10:06;;;;;;;;;;;7.80;76.40;;;;;;5029007;28;20388;-84
2021/05/02 03:12:32;;;;;;;8.55;6.10;;;7.70;75.80;;;;;;5028753;28;19905;-83
2021/05/02 03:14:58;;;;;;;8.32;5.97;;;7.70;75.70;;;;;;4995934;28;20033;-83
2021/05/02 03:17:30;;;;;;;7.35;6.40;;;7.70;76.20;;;;;;5012432;28;20061;-83
2021/05/02 03:20:15;;;;;;;8.73;6.25;;;7.60;76.70;;;;;;5012449;28;20033;-83
2021/05/02 03:23:11;;;;;;;9.45;6.18;;;7.60;77.10;;;;;;5012156;28;20036;-83
2021/05/02 03:25:41;;;;;;;10.32;7.35;;;7.50;77.20;;;;;;5028542;28;20026;-83
2021/05/02 03:28:10;;;;;;;10.82;7.00;;;7.50;77.20;;;;;;5029788;28;20381;-83
2021/05/02 03:30:42;;;;;;;10.07;6.97;;;7.50;77.40;;;;;;5028277;28;20033;-82
2021/05/02 03:33:11;;;;;;;9.05;6.68;;;7.50;77.70;;;;;;5029758;28;20109;-83
2021/05/02 03:35:41;;;;;;;11.02;6.22;;;7.40;77.80;;;;;;5029689;28;20312;-83
2021/05/02 03:38:14;;;;;;;11.65;7.18;;;7.40;78.10;;;;;;5029690;28;20059;-83
2021/05/02 03:40:40;;;;;;;11.32;6.93;;;7.30;78.40;;;;;;5029728;28;20029;-83
2021/05/02 03:43:06;;;;;;;10.00;8.10;;;7.30;78.40;;;;;;5012154;28;20037;-83
2021/05/02 03:45:32;;;;;;;15.38;6.70;;;7.30;78.60;;;;;;5027994;28;20080;-83
2021/05/02 03:47:58;;;;;;;9.13;7.65;;;7.30;78.90;;;;;;5029100;28;20057;-83
2021/05/02 03:50:24;;;;;;;11.05;7.60;;;7.20;79.00;;;;;;5027877;28;20025;-83
2021/05/02 03:52:50;;;;;;;9.02;6.57;;;7.20;79.30;;;;;;5011624;28;20037;-83
2021/05/02 03:55:16;;;;;;;10.80;7.20;;;7.20;79.60;;;;;;5029179;28;20104;-83
2021/05/02 03:57:42;;;;;;;9.38;7.38;;;7.10;79.80;;;;;;5011500;28;20148;-83
2021/05/02 04:00:08;;;;;;;8.13;6.45;;;7.10;80.00;;;;;;5011547;28;20064;-83
2021/05/02 04:02:34;;;;;;;9.35;7.78;;;7.10;80.40;;;;;;5028152;28;20057;-83
2021/05/02 04:05:00;;;;;;;10.82;7.03;;;7.10;80.60;;;;;;4995153;28;20025;-83
2021/05/02 04:07:25;;;;;;;10.73;7.60;;;7.10;80.70;;;;;;5011683;28;20036;-83
2021/05/02 04:09:51;;;;;;;8.15;6.93;;;7.00;81.30;;;;;;4994807;28;20029;-83
2021/05/02 04:12:17;;;;;;;9.80;7.57;;;7.00;81.00;;;;;;4994951;28;20546;-83
2021/05/02 04:14:43;;;;;;;8.75;6.38;;;7.00;81.20;;;;;;5028842;28;20052;-83
2021/05/02 04:17:11;;;;;;;9.57;6.85;;;7.00;81.40;;;;;;5011111;28;20495;-83
2021/05/02 04:19:42;;;;;;;10.80;7.82;;;7.00;81.60;;;;;;5026989;28;20484;-83
2021/05/02 04:22:10;;;;;;;11.00;7.43;;;7.00;81.70;;;;;;5028675;28;20037;-83
2021/05/02 04:24:36;;;;;;;10.80;7.57;;;7.00;81.90;;;;;;5011250;28;20029;-83
2021/05/02 04:27:03;;;;;;;9.70;7.30;;;6.90;81.90;;;;;;5027097;28;20037;-84
2021/05/02 04:29:31;;;;;;;12.45;8.93;;;6.90;82.30;;;;;;5028538;28;20430;-83
2021/05/02 04:31:57;;;;;;;14.10;9.75;;;6.90;82.50;;;;;;5027115;28;20433;-83
2021/05/02 04:34:24;;;;;;;14.70;10.57;;;6.90;82.60;;;;;;5010718;28;20036;-83
2021/05/02 04:36:52;;;;;;;15.95;10.50;;;6.90;82.80;;;;;;5028501;28;20064;-83
2021/05/02 04:39:19;;;;;;;19.20;11.57;;;6.80;83.40;;;;;;5010862;28;20032;-83
2021/05/02 04:41:45;;;;;;;19.95;11.52;;;6.80;83.10;;;;;;5026999;28;20017;-82
2021/05/02 04:44:11;;;;;;;18.10;11.98;;;6.80;83.30;;;;;;5026799;28;20034;-83
2021/05/02 04:46:38;;;;;;;20.50;10.77;;;6.80;83.40;;;;;;5010343;28;20056;-82
2021/05/02 04:49:05;;;;;;;14.27;9.48;;;6.80;83.60;;;;;;5010583;28;20029;-83
2021/05/02 04:51:31;;;;;;;11.73;8.77;;;6.80;83.70;;;;;;5026982;28;20491;-83
2021/05/02 04:53:56;;;;;;;12.23;7.93;;;6.70;84.10;;;;;;5010589;28;20033;-83
2021/05/02 04:56:22;;;;;;;12.93;9.23;;;6.70;83.60;;;;;;5026999;28;20095;-83
2021/05/02 04:58:48;;;;;;;12.88;9.15;;;6.60;83.80;;;;;;5026701;28;20032;-83
2021/05/02 05:01:14;;;;;;;10.10;7.95;;;6.60;83.90;;;;;;5010423;28;20124;-82
2021/05/02 05:03:41;;;;;;;10.52;7.82;;;6.60;84.10;;;;;;5026776;28;20176;-83
2021/05/02 05:06:07;;;;;;;12.05;8.15;;;6.50;84.00;;;;;;5010102;28;20148;-83
2021/05/02 05:08:33;;;;;;;10.88;8.02;;;6.50;84.00;;;;;;5026816;28;20132;-82
2021/05/02 05:10:59;;;;;;;14.15;8.35;;;6.50;84.10;;;;;;5010138;28;20030;-82
2021/05/02 05:13:26;;;;;;;10.50;7.90;;;6.50;84.30;;;;;;5026548;28;20021;-83
2021/05/02 05:15:55;;;;;;;12.90;9.43;;;6.40;84.40;;;;;;5026613;28;20070;-83
2021/05/02 05:18:22;;;;;;;;;;;6.40;84.60;;;;;;5027125;28;20026;-83
2021/05/02 05:20:48;;;;;;;15.95;9.63;;;6.50;84.10;;;;;;5026628;28;19992;-82
2021/05/02 05:23:13;;;;;;;11.90;8.55;;;6.50;83.70;;;;;;5026584;28;20029;-82
2021/05/02 05:25:39;;;;;;;12.18;8.35;;;6.50;83.90;;;;;;5026227;28;20026;-83
2021/05/02 05:28:05;;;;;;;11.70;7.90;;;6.50;84.10;;;;;;4993655;28;20109;-83
2021/05/02 05:30:30;;;;;;;11.52;8.27;;;6.50;84.20;;;;;;5026562;28;20116;-82
2021/05/02 05:33:04;;;;;;;11.85;8.70;;;6.60;84.30;;;;;;5030132;28;20084;-83
2021/05/02 05:35:31;;;;;;;11.35;8.60;;;6.60;84.70;;;;;;5031761;28;20022;-82
2021/05/02 05:37:57;;;;;;;14.05;9.52;;;6.70;84.60;;;;;;5030459;28;20079;-83
2021/05/02 05:40:24;;;;;;;12.48;9.45;;;6.70;84.80;;;;;;5030380;28;20029;-82
2021/05/02 05:42:50;;;;;;;13.57;9.25;;;6.80;85.00;;;;;;5031702;28;20053;-82
2021/05/02 05:45:19;;;;;;;16.52;10.30;;;6.90;85.10;;;;;;5030333;28;20655;-82
2021/05/02 05:47:50;;;;;;;17.80;10.70;;;6.90;85.10;;;;;;5031512;28;20320;-83
2021/05/02 05:50:16;;;;;;;13.65;9.38;;;7.00;85.20;;;;;;5014003;28;20120;-82
2021/05/02 05:52:43;;;;;;;13.55;9.85;;;7.10;85.20;;;;;;5030176;28;20029;-83
2021/05/02 05:55:10;;;;;;;14.30;8.80;;;7.10;85.30;;;;;;5031374;28;20559;-83
2021/05/02 05:57:37;;;;;;;11.80;9.40;;;7.20;85.30;;;;;;5030160;28;20025;-83
2021/05/02 06:00:08;;;;;;;13.45;8.90;;;7.20;85.20;;;;;;5031344;28;20068;-82
2021/05/02 06:02:35;;;;;;;12.25;9.18;;;7.30;85.30;;;;;;5013626;28;20029;-82
2021/05/02 06:05:00;;;;;;;14.93;8.98;;;7.30;85.10;;;;;;5029935;28;20480;-83
2021/05/02 06:07:27;;;;;;;14.88;9.55;;;7.40;85.20;;;;;;5030019;28;20211;-82
2021/05/02 06:09:52;;;;;;;13.55;8.27;;;7.50;85.30;;;;;;5013340;28;20078;-83
2021/05/02 06:12:19;;;;;;;10.18;8.02;;;7.50;85.40;;;;;;5031273;28;20049;-83
2021/05/02 06:14:46;;;;;;;9.27;7.35;;;7.60;85.40;;;;;;5029436;28;20505;-83
2021/05/02 06:17:12;;;;;;;10.00;7.15;;;7.70;85.30;;;;;;5029963;28;20082;-82
2021/05/02 06:19:38;;;;;;;11.68;7.95;;;7.80;85.30;;;;;;5013290;28;20041;-83
2021/05/02 06:22:04;;;;;;;9.13;6.75;;;8.00;85.60;;;;;;5030877;28;20555;-82
2021/05/02 06:24:30;;;;;;;8.13;5.88;;;8.70;88.20;;;;;;5029339;28;20037;-82
2021/05/02 06:26:56;;;;;;;9.43;6.40;;;9.90;85.20;;;;;;5029372;28;20026;-83
2021/05/02 06:29:22;;;;;;;7.90;5.85;;;10.40;80.60;;;;;;5012984;28;20039;-83
2021/05/02 06:31:48;;;;;;;7.50;5.72;;;10.60;78.40;;;;;;4996779;28;20029;-83
2021/05/02 06:34:13;;;;;;;9.63;5.95;;;10.50;77.60;;;;;;4996767;28;20025;-83
2021/05/02 06:36:41;;;;;;;8.30;5.72;;;10.20;77.60;;;;;;5030468;28;20037;-82
2021/05/02 06:39:08;;;;;;;8.82;6.30;;;10.00;78.00;;;;;;5013390;28;20029;-83
2021/05/02 06:41:36;;;;;;;8.80;6.00;;;9.90;78.70;;;;;;5013400;28;20480;-83
2021/05/02 06:44:02;;;;;;;12.07;5.90;;;9.80;79.60;;;;;;5028948;28;20124;-82
2021/05/02 06:46:29;;;;;;;9.73;6.15;;;9.80;79.40;;;;;;5012700;28;20045;-83
2021/05/02 06:49:06;;;;;;;12.55;6.80;;;9.80;79.50;;;;;;5029295;28;20065;-82
2021/05/02 06:51:32;;;;;;;9.07;6.57;;;9.80;79.60;;;;;;5028914;28;20544;-83
2021/05/02 06:53:58;;;;;;;9.55;6.65;;;9.90;79.40;;;;;;5029148;28;20044;-82
2021/05/02 06:56:25;;;;;;;9.50;6.20;;;9.90;79.50;;;;;;5030344;28;20102;-83
2021/05/02 06:58:52;;;;;;;8.10;6.07;;;10.00;79.70;;;;;;5012715;28;20419;-83
2021/05/02 07:01:18;;;;;;;9.25;6.80;;;10.10;79.50;;;;;;5030063;28;20419;-82
2021/05/02 07:03:43;;;;;;;12.32;6.55;;;10.20;79.10;;;;;;5012709;28;20029;-83
2021/05/02 07:06:10;;;;;;;8.20;6.68;;;10.20;78.50;;;;;;5028776;28;20029;-82
2021/05/02 07:08:36;;;;;;;7.80;6.13;;;10.20;78.30;;;;;;5028694;28;20033;-82
2021/05/02 07:11:02;;;;;;;9.35;6.68;;;10.20;78.30;;;;;;5028472;28;20029;-82
2021/05/02 07:13:28;;;;;;;9.50;6.40;;;10.30;78.80;;;;;;4995940;28;20032;-81
2021/05/02 07:15:55;;;;;;;11.35;6.18;;;10.90;80.20;;;;;;5028770;28;20026;-83
2021/05/02 07:18:21;;;;;;;11.25;6.68;;;12.00;79.00;;;;;;5029823;28;20056;-83
2021/05/02 07:20:49;;;;;;;8.73;5.95;;;13.20;76.00;;;;;;5029782;28;20044;-83
2021/05/02 07:23:15;;;;;;;8.73;6.15;;;13.70;72.90;;;;;;5028546;28;20036;-82
2021/05/02 07:25:41;;;;;;;15.02;6.65;;;13.70;71.00;;;;;;5028137;28;20034;-82
2021/05/02 07:28:07;;;;;;;7.63;5.38;;;13.50;70.70;;;;;;5027967;28;20033;-83
2021/05/02 07:30:33;;;;;;;8.25;5.53;;;13.90;72.20;;;;;;5028235;28;20029;-82
2021/05/02 07:32:59;;;;;;;7.78;5.55;;;14.90;72.00;;;;;;5028222;28;20025;-82
2021/05/02 07:35:25;;;;;;;6.32;4.70;;;16.00;69.20;;;;;;5011597;28;20037;-83
2021/05/02 07:37:50;;;;;;;7.38;5.30;;;16.90;67.00;;;;;;5011555;28;20107;-83
2021/05/02 07:40:16;;;;;;;5.40;4.30;;;17.90;65.50;;;;;;5011649;28;20033;-83
2021/05/02 07:42:42;;;;;;;6.30;4.95;;;18.70;63.50;;;;;;5011197;28;20034;-84
2021/05/02 07:45:08;;;;;;;6.18;4.70;;;19.60;61.10;;;;;;5010982;28;20164;-82
2021/05/02 07:47:35;;;;;;;6.30;4.32;;;20.30;59.80;;;;;;5027349;28;20061;-83
2021/05/02 07:50:03;;;;;;;6.22;4.20;;;21.10;58.40;;;;;;5010816;28;20029;-82
2021/05/02 07:52:28;;;;;;;6.32;4.50;;;21.60;56.10;;;;;;5027411;28;20045;-83
2021/05/02 07:54:54;;;;;;;5.32;4.05;;;22.00;54.60;;;;;;5010233;28;20035;-83
2021/05/02 07:57:19;;;;;;;8.32;4.45;;;22.30;53.50;;;;;;5027929;28;20083;-83
2021/05/02 07:59:45;;;;;;;7.13;4.00;;;22.60;52.70;;;;;;5027430;28;20041;-82
2021/05/02 08:02:11;;;;;;;6.15;4.30;;;23.10;52.30;;;;;;5027197;28;20556;-82
2021/05/02 08:04:38;;;;;;;7.22;5.50;;;23.50;51.30;;;;;;5028343;28;20510;-83
2021/05/02 08:07:08;;;;;;;7.65;4.38;;;24.00;50.60;;;;;;5027120;28;20037;-83
2021/05/02 08:09:34;;;;;;;9.90;3.60;;;23.70;48.40;;;;;;5010272;28;20029;-83
2021/05/02 08:12:00;;;;;;;5.28;3.70;;;22.70;48.00;;;;;;5012072;28;20334;-80
2021/05/02 08:14:27;;;;;;;16.70;4.93;;;21.50;48.30;;;;;;5010816;28;20112;-79
2021/05/02 08:16:53;;;;;;;9.82;4.63;;;20.70;49.80;;;;;;5011378;28;20071;-80
2021/05/02 08:19:19;;;;;;;8.57;5.63;;;20.70;50.80;;;;;;5027410;28;20566;-82
2021/05/02 08:21:45;;;;;;;10.77;4.50;;;21.40;51.00;;;;;;5028383;28;20079;-82
2021/05/02 08:24:12;;;;;;;4.18;3.50;;;22.40;50.80;;;;;;5010444;28;20025;-81
2021/05/02 08:26:39;;;;;;;6.15;4.40;;;23.30;50.10;;;;;;5026340;28;20037;-82
2021/05/02 08:29:05;;;;;;;6.20;4.22;;;24.10;49.00;;;;;;5026876;28;20071;-83
2021/05/02 08:31:31;;;;;;;5.97;4.00;;;24.80;48.60;;;;;;5026520;28;20034;-83
2021/05/02 08:33:56;;;;;;;8.88;4.68;;;25.50;47.60;;;;;;5026462;28;20499;-82
2021/05/02 08:36:22;;;;;;;6.07;4.00;;;26.10;47.00;;;;;;5026454;28;20037;-82
2021/05/02 08:38:49;;;;;;;5.75;3.70;;;26.60;46.30;;;;;;5026481;28;20029;-82
2021/05/02 08:41:15;;;;;;;5.50;4.07;;;26.70;45.40;;;;;;5010424;28;20044;-82
2021/05/02 08:43:41;;;;;;;6.78;4.00;;;27.00;45.30;;;;;;5026621;28;20110;-82
2021/05/02 08:46:09;;;;;;;5.53;3.50;;;27.20;44.70;;;;;;5009481;28;20326;-82
2021/05/02 08:48:35;;;;;;;8.45;3.95;;;27.40;44.50;;;;;;5026394;28;20056;-82
2021/05/02 08:51:01;;;;;;;4.95;3.92;;;27.90;44.20;;;;;;5025335;28;20025;-82
2021/05/02 08:53:27;;;;;;;5.72;4.00;;;28.50;43.90;;;;;;5025809;28;20063;-83
2021/05/02 08:55:55;;;;;;;5.68;3.20;;;29.10;43.50;;;;;;5009756;28;20076;-82
2021/05/02 08:58:25;;;;;;;14.35;4.68;;;29.30;42.40;;;;;;5028070;28;20100;-84
2021/05/02 09:00:51;;;;;;;5.78;3.30;;;28.60;42.00;;;;;;5026634;28;20026;-81
2021/05/02 09:03:17;;;;;;;6.28;4.50;;;27.60;41.40;;;;;;5009871;28;20030;-83
2021/05/02 09:05:48;;;;;;;8.13;4.55;;;26.60;41.30;;;;;;5027070;28;20114;-82
2021/05/02 09:08:35;;;;;;;6.90;3.55;;;25.80;42.10;;;;;;5026396;28;20029;-84
2021/05/02 09:11:02;;;;;;;6.68;3.67;;;26.10;43.10;;;;;;5009122;28;20172;-83
2021/05/02 09:13:29;;;;;;;5.45;3.28;;;26.60;43.00;;;;;;5025624;28;20036;-82
2021/05/02 09:16:00;;;;;;;7.85;4.22;;;26.60;41.90;;;;;;5025357;28;20028;-84
2021/05/02 09:18:35;;;;;;;7.97;4.22;;;25.90;41.30;;;;;;5009379;28;20022;-83
2021/05/02 09:21:03;;;;;;;5.97;3.88;;;25.50;41.80;;;;;;5025850;28;20036;-83
2021/05/02 09:23:40;;;;;;;6.20;4.10;;;26.00;42.90;;;;;;5009472;28;20029;-82
2021/05/02 09:26:08;;;;;;;5.85;3.75;;;27.00;42.70;;;;;;5027149;28;20538;-83
2021/05/02 09:28:49;;;;;;;5.25;3.38;;;27.10;41.60;;;;;;5025381;28;20141;-82
2021/05/02 09:31:20;;;;;;;6.57;3.83;;;27.50;41.70;;;;;;5025761;28;20029;-82
2021/05/02 09:33:47;;;;;;;5.28;3.55;;;28.40;41.70;;;;;;5027242;28;20111;-84
2021/05/02 09:36:15;;;;;;;5.70;3.72;;;29.30;41.60;;;;;;5026118;28;20030;-84
2021/05/02 09:38:42;;;;;;;6.95;3.90;;;29.90;40.50;;;;;;5025852;28;20025;-83
2021/05/02 09:41:09;;;;;;;7.45;4.30;;;30.40;39.90;;;;;;5025581;28;20029;-83
2021/05/02 09:43:46;;;;;;;7.18;3.58;;;30.60;39.10;;;;;;5009440;28;20068;-82
2021/05/02 09:46:33;;;;;;;8.55;4.05;;;30.40;38.20;;;;;;5025513;28;20095;-83
2021/05/02 09:49:18;;;;;;;8.40;3.45;;;30.20;38.50;;;;;;5009051;28;20073;-84
2021/05/02 09:51:54;;;;;;;6.97;3.60;;;30.40;38.80;;;;;;5026880;28;20087;-78
2021/05/02 09:54:21;;;;;;;5.00;3.22;;;31.00;38.80;;;;;;5025648;28;20384;-83
2021/05/02 09:56:52;;;;;;;4.70;2.70;;;31.50;38.20;;;;;;5026375;28;20447;-83
2021/05/02 09:59:30;;;;;;;6.65;3.25;;;31.60;37.70;;;;;;5009253;28;20062;-84
2021/05/02 10:02:20;;;;;;;5.30;3.08;;;32.40;38.00;;;;;;5027163;28;20028;-83
2021/05/02 10:04:50;;;;;;;9.75;4.18;;;33.50;37.90;;;;;;5025604;28;20634;-82
2021/05/02 10:07:22;;;;;;;6.78;6.15;;;34.20;36.60;;;;;;5026926;28;20469;-82
2021/05/02 10:09:48;;;;;;;17.02;15.32;;;33.50;34.70;;;;;;5026539;28;20033;-82
2021/05/02 10:12:14;;;;;;;39.20;35.30;;;32.40;35.10;;;;;;5009522;28;20141;-82
2021/05/02 10:14:41;;;;;;;23.98;21.58;;;31.20;35.00;;;;;;5025695;28;20353;-85
2021/05/02 10:17:08;;;;;;;17.55;15.77;;;29.90;34.90;;;;;;5026454;28;20034;-82
2021/05/02 10:19:34;;;;;;;11.98;8.65;;;28.50;35.40;;;;;;5012127;28;20053;-83
2021/05/02 10:22:00;;;;;;;7.53;4.75;;;27.20;35.90;;;;;;5028484;28;20423;-84
2021/05/02 10:24:26;;;;;;;5.53;2.95;;;26.10;36.30;;;;;;5029238;28;20037;-83
2021/05/02 10:26:53;;;;;;;4.95;3.13;;;25.10;36.60;;;;;;5028755;28;20388;-82
2021/05/02 10:29:31;;;;;;;5.55;2.53;;;24.20;37.00;;;;;;5012540;28;20026;-84
2021/05/02 10:32:09;;;;;;;5.78;3.13;;;23.40;37.60;;;;;;5029802;28;20101;-83
2021/05/02 10:34:38;;;;;;;5.40;4.32;;;22.70;38.20;;;;;;5012336;28;20040;-83
2021/05/02 10:37:25;;;;;;;7.85;5.18;;;22.10;38.90;;;;;;5028432;28;20071;-83
2021/05/02 10:40:13;;;;;;;7.05;3.30;;;21.50;39.70;;;;;;5030744;28;20025;-86
2021/05/02 10:42:53;;;;;;;5.30;3.35;;;21.20;40.40;;;;;;5028540;28;20103;-82
2021/05/02 10:45:35;;;;;;;7.70;3.65;;;20.90;40.30;;;;;;5028960;28;20040;-82
2021/05/02 10:48:25;;;;;;;6.55;3.10;;;20.50;40.50;;;;;;5029593;28;20037;-83
2021/05/02 10:50:53;;;;;;;5.05;3.50;;;20.30;40.80;;;;;;5028903;28;20041;-82
2021/05/02 10:53:27;;;;;;;5.75;3.72;;;20.80;42.10;;;;;;5029885;28;20025;-83
2021/05/02 10:55:57;;;;;;;12.90;9.27;;;22.00;41.60;;;;;;5012012;28;20029;-82
2021/05/02 10:58:32;;;;;;;6.10;3.55;;;22.40;40.60;;;;;;5029722;28;20553;-82
2021/05/02 11:01:03;;;;;;;7.68;4.03;;;22.20;40.00;;;;;;5029578;28;20037;-83
2021/05/02 11:03:40;;;;;;;5.80;2.72;;;22.00;40.10;;;;;;5027876;28;20038;-85
2021/05/02 11:06:09;;;;;;;3.58;2.67;;;22.70;41.00;;;;;;5029600;28;20040;-83
2021/05/02 11:08:50;;;;;;;8.05;3.50;;;24.30;41.10;;;;;;5027678;28;20047;-83
2021/05/02 11:11:32;;;;;;;5.43;2.88;;;26.20;40.30;;;;;;5027929;28;20022;-86
2021/05/02 11:14:21;;;;;;;4.07;2.55;;;27.60;38.90;;;;;;5027797;28;20137;-84
2021/05/02 11:16:46;;;;;;;5.80;2.70;;;27.40;37.50;;;;;;5021516;28;20076;-83
2021/05/02 11:19:24;;;;;;;5.50;3.38;;;26.70;37.20;;;;;;5029097;28;20100;-83
2021/05/02 11:21:55;;;;;;;4.72;2.28;;;25.60;36.70;;;;;;5028274;28;20507;-84
2021/05/02 11:24:25;;;;;;;11.30;4.75;;;24.60;37.10;;;;;;5028341;28;20024;-84
2021/05/02 11:27:00;;;;;;;6.72;2.45;;;23.80;37.60;;;;;;5027735;28;20026;-83
2021/05/02 11:29:34;;;;;;;5.35;3.25;;;23.00;37.80;;;;;;5026242;28;20049;-83
2021/05/02 11:32:00;;;;;;;4.88;2.30;;;22.40;38.20;;;;;;5012291;28;20029;-84
2021/05/02 11:34:26;;;;;;;6.88;3.65;;;21.90;38.40;;;;;;5028094;28;20034;-83
2021/05/02 11:36:52;;;;;;;4.57;2.20;;;21.60;38.50;;;;;;5027082;28;20089;-83
2021/05/02 11:39:30;;;;;;;5.53;3.83;;;21.30;38.40;;;;;;5027438;28;20056;-69
2021/05/02 11:42:06;;;;;;;3.75;1.88;;;21.00;38.20;;;;;;5028930;28;20021;-84
2021/05/02 11:44:33;;;;;;;5.45;2.33;;;20.60;38.20;;;;;;5027012;28;20048;-86
2021/05/02 11:47:12;;;;;;;9.30;4.28;;;20.30;38.60;;;;;;5009762;28;20081;-82
2021/05/02 11:49:40;;;;;;;11.27;5.60;;;20.20;39.10;;;;;;4993467;28;20388;-84
2021/05/02 11:52:06;;;;;;;8.60;3.22;;;20.20;39.40;;;;;;5010933;28;20032;-84
2021/05/02 11:54:46;;;;;;;5.78;4.00;;;20.50;39.80;;;;;;5043091;28;20393;-83
2021/05/02 11:57:12;;;;;;;12.07;2.40;;;21.60;40.20;;;;;;5042144;28;20076;-83
2021/05/02 11:59:50;;;;;;;3.55;2.00;;;23.30;40.10;;;;;;5025539;28;20053;-82
2021/05/02 12:02:16;;;;;;;9.45;2.55;;;25.40;38.70;;;;;;5025727;28;20171;-83
2021/05/02 12:04:42;;;;;;;4.57;2.00;;;26.90;38.20;;;;;;5042198;28;20100;-83
2021/05/02 12:07:07;;;;;;;4.28;1.77;;;28.00;36.80;;;;;;5024746;28;20039;-84
2021/05/02 12:09:33;;;;;;;3.00;1.60;;;28.50;35.80;;;;;;5025340;28;20392;-83
2021/05/02 12:12:00;;;;;;;7.50;4.18;;;28.40;35.00;;;;;;5042646;28;20099;-83
2021/05/02 12:14:31;;;;;;;4.30;2.33;;;27.80;34.40;;;;;;5043274;28;20070;-83
2021/05/02 12:16:59;;;;;;;6.32;2.58;;;26.90;34.50;;;;;;5043485;28;20024;-83
2021/05/02 12:19:27;;;;;;;4.50;2.22;;;25.70;34.70;;;;;;5041704;28;20112;-82
2021/05/02 12:21:53;;;;;;;5.03;3.00;;;24.60;35.00;;;;;;5042128;28;20056;-83
2021/05/02 12:24:24;;;;;;;7.60;4.90;;;23.70;35.50;;;;;;5041585;28;20029;-83
2021/05/02 12:26:52;;;;;;;5.38;2.78;;;23.10;35.90;;;;;;5041901;28;20048;-84
2021/05/02 12:29:38;;;;;;;4.15;2.85;;;22.40;36.30;;;;;;5042191;28;20487;-83
2021/05/02 12:32:10;;;;;;;3.35;2.08;;;21.80;36.60;;;;;;5042032;28;20039;-83
2021/05/02 12:34:43;;;;;;;3.33;1.83;;;21.40;36.60;;;;;;5041048;28;20109;-83
2021/05/02 12:37:12;;;;;;;4.80;2.10;;;21.00;37.10;;;;;;5024981;28;20021;-83
2021/05/02 12:39:39;;;;;;;7.82;2.20;;;20.70;37.50;;;;;;5041115;28;20087;-82
2021/05/02 12:42:06;;;;;;;3.92;1.80;;;20.60;37.90;;;;;;5041651;28;20067;-85
2021/05/02 12:44:34;;;;;;;5.00;2.20;;;20.50;37.70;;;;;;5040728;28;20367;-83
2021/05/02 12:47:17;;;;;;;5.07;2.60;;;20.40;37.50;;;;;;5024198;28;20387;-82
2021/05/02 12:49:57;;;;;;;4.63;2.38;;;20.80;38.50;;;;;;5041778;28;20124;-84
2021/05/02 12:52:44;;;;;;;3.05;1.75;;;22.40;38.50;;;;;;5040607;28;20034;-83
2021/05/02 12:55:27;;;;;;;7.78;2.90;;;23.60;36.70;;;;;;5042470;28;20476;-85
2021/05/02 12:57:56;;;;;;;2.33;1.58;;;23.70;36.30;;;;;;5041468;28;20053;-83